createdAt,value
2019-06-26T00:02:00.227Z,12.00
2019-06-26T00:04:35.569Z,12.43
2019-06-26T00:07:09.782Z,11.95
2019-06-26T00:09:43.948Z,12.18
2019-06-26T00:12:20.300Z,12.70
2019-06-26T00:14:54.646Z,13.32
2019-06-26T00:17:28.827Z,12.95
2019-06-26T00:20:03.247Z,11.97
2019-06-26T00:22:38.781Z,14.43
2019-06-26T00:25:16.378Z,13.80
2019-06-26T00:27:50.300Z,13.35
2019-06-26T00:30:24.813Z,13.15
2019-06-26T00:33:01.137Z,13.53
2019-06-26T00:35:35.198Z,13.95
2019-06-26T00:38:09.589Z,13.62
2019-06-26T00:41:05.996Z,13.68
2019-06-26T00:43:45.083Z,14.20
2019-06-26T00:46:20.158Z,14.78
2019-06-26T00:48:56.309Z,14.45
2019-06-26T00:51:30.464Z,13.75
2019-06-26T01:02:26.715Z,14.35
2019-06-26T01:05:03.324Z,14.53
2019-06-26T01:07:39.009Z,15.95
2019-06-26T01:10:16.232Z,15.00
2019-06-26T01:12:51.236Z,16.05
2019-06-26T01:15:26.845Z,15.55
2019-06-26T01:18:05.670Z,15.23
2019-06-26T01:20:42.539Z,14.93
2019-06-26T01:23:17.626Z,13.85
2019-06-26T01:25:52.075Z,14.03
2019-06-26T01:28:27.202Z,14.25
2019-06-26T01:31:39.720Z,14.83
2019-06-26T01:37:52.145Z,15.83
2019-06-26T01:40:35.943Z,15.10
2019-06-26T01:43:44.522Z,14.30
2019-06-26T01:46:20.429Z,15.48
2019-06-26T01:49:03.498Z,14.87
2019-06-26T01:51:54.945Z,16.15
2019-06-26T01:54:35.731Z,17.10
2019-06-26T01:57:09.578Z,15.48
2019-06-26T01:59:44.157Z,15.08
2019-06-26T02:02:18.092Z,15.13
2019-06-26T02:04:52.522Z,15.05
2019-06-26T02:07:26.552Z,14.70
2019-06-26T02:10:00.568Z,14.58
2019-06-26T02:12:34.793Z,14.05
2019-06-26T02:15:10.836Z,13.78
2019-06-26T02:17:45.159Z,14.00
2019-06-26T02:20:19.649Z,14.18
2019-06-26T02:22:54.255Z,16.70
2019-06-26T02:25:28.226Z,16.70
2019-06-26T02:28:02.315Z,16.25
2019-06-26T02:30:36.189Z,16.20
2019-06-26T02:33:10.371Z,15.68
2019-06-26T02:35:47.350Z,14.35
2019-06-26T02:38:23.052Z,14.65
2019-06-26T02:40:59.873Z,15.58
2019-06-26T02:43:34.617Z,15.43
2019-06-26T02:46:10.469Z,16.07
2019-06-26T02:48:44.644Z,15.88
2019-06-26T02:51:18.876Z,15.03
2019-06-26T02:53:52.940Z,15.95
2019-06-26T03:04:29.138Z,15.58
2019-06-26T03:07:04.504Z,15.43
2019-06-26T03:09:42.435Z,15.93
2019-06-26T03:12:18.336Z,16.12
2019-06-26T03:15:20.978Z,16.15
2019-06-26T03:20:58.171Z,17.67
2019-06-26T03:23:34.245Z,19.07
2019-06-26T03:26:09.776Z,18.50
2019-06-26T03:29:26.915Z,18.27
2019-06-26T03:32:08.421Z,17.65
2019-06-26T03:34:44.524Z,19.55
2019-06-26T03:37:21.325Z,18.57
2019-06-26T03:39:59.047Z,17.95
2019-06-26T03:42:34.343Z,21.17
2019-06-26T03:45:24.575Z,19.52
2019-06-26T03:47:43.997Z,20.08
2019-06-26T03:50:17.373Z,18.48
2019-06-26T03:52:50.446Z,18.10
2019-06-26T03:55:23.878Z,18.48
2019-06-26T03:57:56.963Z,16.62
2019-06-26T04:00:41.436Z,18.37
2019-06-26T04:03:15.463Z,18.67
2019-06-26T04:05:49.638Z,18.87
2019-06-26T04:08:22.806Z,20.90
2019-06-26T04:10:55.954Z,18.60
2019-06-26T04:13:29.774Z,19.00
2019-06-26T04:16:02.860Z,18.62
2019-06-26T04:18:36.091Z,18.92
2019-06-26T04:21:09.232Z,19.10
2019-06-26T04:23:42.411Z,18.42
2019-06-26T04:26:15.490Z,19.32
2019-06-26T04:28:48.725Z,19.95
2019-06-26T04:31:21.883Z,18.92
2019-06-26T04:33:55.044Z,19.15
2019-06-26T04:36:28.205Z,20.35
2019-06-26T04:39:01.919Z,18.85
2019-06-26T04:41:36.425Z,17.45
2019-06-26T04:44:10.043Z,18.67
2019-06-26T04:46:44.141Z,17.12
2019-06-26T04:49:17.637Z,18.07
2019-06-26T04:51:51.237Z,17.55
2019-06-26T04:54:25.067Z,17.57
2019-06-26T04:56:58.497Z,16.45
2019-06-26T04:59:31.978Z,16.62
2019-06-26T05:02:05.362Z,17.20
2019-06-26T05:04:38.789Z,15.93
2019-06-26T05:07:12.881Z,16.75
2019-06-26T05:09:46.718Z,16.15
2019-06-26T05:12:20.182Z,16.57
2019-06-26T05:14:53.642Z,15.83
2019-06-26T05:17:27.336Z,14.65
2019-06-26T05:20:00.847Z,13.65
2019-06-26T05:22:34.258Z,14.50
2019-06-26T05:25:08.175Z,13.85
2019-06-26T05:27:41.749Z,13.20
2019-06-26T05:30:16.025Z,12.93
2019-06-26T05:32:49.657Z,12.65
2019-06-26T05:35:23.531Z,12.10
2019-06-26T05:37:57.377Z,12.05
2019-06-26T05:40:30.908Z,12.18
2019-06-26T05:43:04.506Z,11.88
2019-06-26T05:45:38.097Z,12.45
2019-06-26T05:48:11.742Z,12.75
2019-06-26T05:50:46.342Z,12.50
2019-06-26T05:53:19.805Z,11.68
2019-06-26T05:55:53.181Z,12.07
2019-06-26T05:58:26.581Z,11.10
2019-06-26T06:01:00.265Z,11.65
2019-06-26T06:03:33.974Z,12.45
2019-06-26T06:06:08.734Z,12.45
2019-06-26T06:08:42.636Z,12.80
2019-06-26T06:11:18.013Z,11.28
2019-06-26T06:13:51.580Z,11.97
2019-06-26T06:16:24.989Z,11.48
2019-06-26T06:18:58.986Z,11.53
2019-06-26T06:21:33.178Z,10.95
2019-06-26T06:24:07.554Z,11.68
2019-06-26T06:26:43.667Z,11.85
2019-06-26T06:29:17.280Z,11.48
2019-06-26T06:31:50.980Z,11.38
2019-06-26T06:34:24.578Z,11.97
2019-06-26T06:36:58.228Z,12.10
2019-06-26T06:39:31.863Z,13.05
2019-06-26T06:42:05.540Z,12.03
2019-06-26T06:44:38.993Z,11.03
2019-06-26T06:47:12.250Z,11.90
2019-06-26T06:49:45.480Z,11.28
2019-06-26T06:52:18.575Z,11.53
2019-06-26T06:54:51.759Z,11.83
2019-06-26T06:57:24.990Z,11.60
2019-06-26T06:59:59.158Z,12.10
2019-06-26T07:02:33.108Z,11.50
2019-06-26T07:05:06.579Z,11.55
2019-06-26T07:07:39.746Z,11.45
2019-06-26T07:10:13.201Z,11.25
2019-06-26T07:12:46.440Z,11.35
2019-06-26T07:15:20.285Z,11.60
2019-06-26T07:17:53.842Z,11.48
2019-06-26T07:20:26.987Z,10.75
2019-06-26T07:23:00.885Z,11.65
2019-06-26T07:25:34.193Z,11.18
2019-06-26T07:28:08.462Z,11.55
2019-06-26T07:30:41.867Z,11.35
2019-06-26T07:33:15.535Z,10.35
2019-06-26T07:35:48.840Z,11.15
2019-06-26T07:38:22.173Z,10.70
2019-06-26T07:40:55.576Z,9.88
2019-06-26T07:43:30.215Z,11.08
2019-06-26T07:46:03.667Z,9.98
2019-06-26T07:48:37.060Z,9.68
2019-06-26T07:51:10.841Z,10.80
2019-06-26T07:53:44.238Z,9.93
2019-06-26T07:56:17.764Z,9.58
2019-06-26T07:58:52.256Z,9.65
2019-06-26T08:01:26.636Z,9.88
2019-06-26T08:04:01.160Z,9.63
2019-06-26T08:06:34.940Z,9.80
2019-06-26T08:09:09.898Z,9.13
2019-06-26T08:11:44.844Z,9.80
2019-06-26T08:14:19.707Z,9.85
2019-06-26T08:16:53.543Z,9.30
2019-06-26T08:19:27.299Z,9.70
2019-06-26T08:22:01.187Z,7.65
2019-06-26T08:24:36.314Z,8.88
2019-06-26T08:27:13.225Z,8.98
2019-06-26T08:29:47.240Z,7.65
2019-06-26T08:32:26.040Z,7.70
2019-06-26T08:34:59.446Z,7.12
2019-06-26T08:37:35.304Z,7.00
2019-06-26T08:40:09.834Z,7.35
2019-06-26T08:42:44.189Z,6.40
2019-06-26T08:45:25.371Z,6.60
2019-06-26T08:48:13.484Z,6.12
2019-06-26T08:50:34.424Z,6.92
2019-06-26T08:53:09.769Z,5.80
2019-06-26T08:55:48.661Z,6.33
2019-06-26T08:58:27.378Z,6.33
2019-06-26T09:01:07.289Z,7.12
2019-06-26T09:03:43.749Z,7.08
2019-06-26T09:06:17.895Z,6.65
2019-06-26T09:08:54.275Z,6.50
2019-06-26T09:11:28.016Z,6.10
2019-06-26T09:14:05.534Z,6.87
2019-06-26T09:16:42.415Z,6.45
2019-06-26T09:19:17.759Z,6.33
2019-06-26T09:21:57.086Z,6.00
2019-06-26T09:24:41.643Z,5.50
2019-06-26T09:28:09.124Z,6.15
2019-06-26T09:32:14.049Z,6.12
2019-06-26T09:38:33.965Z,6.35
2019-06-26T09:41:54.877Z,6.78
2019-06-26T09:48:32.998Z,7.60
2019-06-26T09:52:03.585Z,7.25
2019-06-26T09:59:32.845Z,6.40
2019-06-26T10:02:08.331Z,7.05
2019-06-26T10:04:49.092Z,7.40
2019-06-26T10:07:26.395Z,6.78
2019-06-26T10:10:23.458Z,7.58
2019-06-26T10:13:01.121Z,6.75
2019-06-26T10:15:36.167Z,6.67
2019-06-26T10:18:13.929Z,7.97
2019-06-26T10:20:55.521Z,7.62
2019-06-26T10:31:55.534Z,7.55
2019-06-26T10:34:47.789Z,7.37
2019-06-26T10:40:39.239Z,7.70
2019-06-26T10:43:29.175Z,7.17
2019-06-26T10:46:08.209Z,7.72
2019-06-26T10:48:46.525Z,8.10
2019-06-26T10:51:20.486Z,7.37
2019-06-26T10:53:56.646Z,7.28
2019-06-26T10:56:34.684Z,7.35
2019-06-26T10:59:10.254Z,7.40
2019-06-26T11:01:45.332Z,7.67
2019-06-26T11:04:28.517Z,8.25
2019-06-26T11:07:02.568Z,10.18
2019-06-26T11:09:38.165Z,8.10
2019-06-26T11:12:21.565Z,7.00
2019-06-26T11:14:55.992Z,7.83
2019-06-26T11:17:34.384Z,7.67
2019-06-26T11:20:09.501Z,7.17
2019-06-26T11:23:07.936Z,15.08
2019-06-26T11:25:56.839Z,8.18
2019-06-26T11:28:36.545Z,6.90
2019-06-26T11:31:13.578Z,6.95
2019-06-26T11:33:55.655Z,8.00
2019-06-26T11:36:29.229Z,8.03
2019-06-26T11:39:04.194Z,17.87
2019-06-26T11:41:42.668Z,22.17
2019-06-26T11:44:16.558Z,13.05
2019-06-26T11:46:50.724Z,6.85
2019-06-26T11:49:27.544Z,6.60
2019-06-26T11:52:07.035Z,11.45
2019-06-26T11:54:41.114Z,9.43
2019-06-26T11:57:23.681Z,8.80
2019-06-26T11:59:54.111Z,5.92
2019-06-26T12:02:32.975Z,7.53
2019-06-26T12:05:08.403Z,8.20
2019-06-26T12:07:42.336Z,7.55
2019-06-26T12:10:17.081Z,6.30
2019-06-26T12:12:54.519Z,8.45
2019-06-26T12:15:32.107Z,6.42
2019-06-26T12:18:08.348Z,7.20
2019-06-26T12:20:43.547Z,6.62
2019-06-26T12:23:17.050Z,6.80
2019-06-26T12:25:53.933Z,7.30
2019-06-26T12:28:29.865Z,6.12
2019-06-26T12:32:13.646Z,8.05
2019-06-26T12:50:35.459Z,6.35
2019-06-26T12:53:04.382Z,5.83
2019-06-26T12:55:38.541Z,6.03
2019-06-26T12:58:19.979Z,6.37
2019-06-26T13:00:51.663Z,6.37
2019-06-26T13:03:25.195Z,5.60
2019-06-26T13:06:03.575Z,5.95
2019-06-26T13:08:37.991Z,5.72
2019-06-26T13:11:12.993Z,5.70
2019-06-26T13:14:02.413Z,5.92
2019-06-26T13:16:29.323Z,6.53
2019-06-26T13:19:06.369Z,6.30
2019-06-26T13:21:39.911Z,6.37
2019-06-26T13:24:13.536Z,6.17
2019-06-26T13:26:47.140Z,5.92
2019-06-26T13:29:20.924Z,5.70
2019-06-26T13:31:54.871Z,5.20
2019-06-26T13:34:30.112Z,4.90
2019-06-26T13:37:07.323Z,4.83
2019-06-26T13:39:40.398Z,4.20
2019-06-26T13:42:15.181Z,4.87
2019-06-26T13:44:48.729Z,5.10
2019-06-26T13:47:22.304Z,4.65
2019-06-26T13:49:55.898Z,4.55
2019-06-26T13:52:29.612Z,4.83
2019-06-26T13:55:03.116Z,4.70
2019-06-26T13:57:40.178Z,5.03
2019-06-26T14:00:19.747Z,4.60
2019-06-26T14:02:54.742Z,5.50
2019-06-26T14:05:29.663Z,5.65
2019-06-26T14:08:03.357Z,5.28
2019-06-26T14:10:37.353Z,5.22
2019-06-26T14:13:10.937Z,4.70
2019-06-26T14:15:46.111Z,5.30
2019-06-26T14:18:19.622Z,5.65
2019-06-26T14:20:53.990Z,5.37
2019-06-26T14:23:29.251Z,5.95
2019-06-26T14:26:02.767Z,6.17
2019-06-26T14:28:38.269Z,5.80
2019-06-26T14:31:11.787Z,5.87
2019-06-26T14:33:50.145Z,5.92
2019-06-26T14:36:23.914Z,5.75
2019-06-26T14:39:09.212Z,6.03
2019-06-26T14:41:48.086Z,5.22
2019-06-26T14:44:27.259Z,5.28
2019-06-26T14:47:04.042Z,5.60
2019-06-26T14:49:42.659Z,5.35
2019-06-26T14:52:19.758Z,5.55
2019-06-26T14:54:58.192Z,6.30
2019-06-26T14:57:34.390Z,6.17
2019-06-26T15:00:09.794Z,5.42
2019-06-26T15:02:46.145Z,5.55
2019-06-26T15:05:19.872Z,5.30
2019-06-26T15:07:55.560Z,6.75
2019-06-26T15:10:29.336Z,5.90
2019-06-26T15:13:07.567Z,5.75
2019-06-26T15:15:45.625Z,5.72
2019-06-26T15:18:19.538Z,6.83
2019-06-26T15:21:00.896Z,6.70
2019-06-26T15:23:39.749Z,5.65
2019-06-26T15:26:23.390Z,5.85
2019-06-26T15:28:54.164Z,6.37
2019-06-26T15:31:27.869Z,6.15
2019-06-26T15:34:03.824Z,5.65
2019-06-26T15:36:46.994Z,6.62
2019-06-26T15:39:39.665Z,6.25
2019-06-26T15:42:15.594Z,5.67
2019-06-26T15:44:50.800Z,6.50
2019-06-26T15:48:11.197Z,5.90
2019-06-26T15:50:49.072Z,7.78
2019-06-26T15:53:28.138Z,6.80
2019-06-26T15:56:06.427Z,7.22
2019-06-26T15:58:42.137Z,5.50
2019-06-26T16:01:15.836Z,6.35
2019-06-26T16:03:52.822Z,6.42
2019-06-26T16:06:45.669Z,6.22
2019-06-26T16:09:22.159Z,7.15
2019-06-26T16:11:58.913Z,6.03
2019-06-26T16:14:33.721Z,5.90
2019-06-26T16:17:13.406Z,6.10
2019-06-26T16:19:47.466Z,5.55
2019-06-26T16:22:31.864Z,6.87
2019-06-26T16:25:01.318Z,6.70
2019-06-26T16:27:34.959Z,6.70
2019-06-26T16:30:09.406Z,6.47
2019-06-26T16:33:03.358Z,5.85
2019-06-26T16:35:43.629Z,6.37
2019-06-26T16:38:31.069Z,7.25
2019-06-26T16:41:06.406Z,6.62
2019-06-26T16:43:40.256Z,7.40
2019-06-26T16:46:54.743Z,5.85
2019-06-26T16:49:28.660Z,6.70
2019-06-26T16:52:03.238Z,6.33
2019-06-26T16:54:47.752Z,7.03
2019-06-26T16:57:31.009Z,6.10
2019-06-26T17:00:21.399Z,6.10
2019-06-26T17:02:55.406Z,5.92
2019-06-26T17:05:29.238Z,5.87
2019-06-26T17:08:05.448Z,6.22
2019-06-26T17:10:40.357Z,7.12
2019-06-26T17:16:20.112Z,6.70
2019-06-26T17:18:53.903Z,7.58
2019-06-26T17:21:27.232Z,6.70
2019-06-26T17:24:00.549Z,7.45
2019-06-26T17:26:34.236Z,6.85
2019-06-26T17:29:07.552Z,6.87
2019-06-26T17:31:44.399Z,8.53
2019-06-26T17:34:18.022Z,9.38
2019-06-26T17:36:53.223Z,8.05
2019-06-26T17:39:27.763Z,9.93
2019-06-26T17:42:01.271Z,9.88
2019-06-26T17:44:34.769Z,10.43
2019-06-26T17:47:08.195Z,9.90
2019-06-26T17:49:42.745Z,10.35
2019-06-26T17:52:16.119Z,9.35
2019-06-26T17:54:51.011Z,9.63
2019-06-26T17:57:24.413Z,9.70
2019-06-26T17:59:57.854Z,30.92
2019-06-26T18:02:31.496Z,22.50
2019-06-26T18:05:08.995Z,27.98
2019-06-26T18:07:47.409Z,49.63
2019-06-26T18:10:20.841Z,28.92
2019-06-26T18:12:54.281Z,14.20
2019-06-26T18:15:31.448Z,31.35
2019-06-26T18:18:06.758Z,20.80
2019-06-26T18:20:40.081Z,20.02
2019-06-26T18:23:14.937Z,17.35
2019-06-26T18:25:54.083Z,20.97
2019-06-26T18:28:23.750Z,19.87
2019-06-26T18:30:59.190Z,18.02
2019-06-26T18:33:32.510Z,13.58
2019-06-26T18:36:06.063Z,14.15
2019-06-26T18:38:39.559Z,16.32
2019-06-26T18:41:13.447Z,11.15
2019-06-26T18:43:46.786Z,18.98
2019-06-26T18:46:24.785Z,13.00
2019-06-26T18:48:57.097Z,12.85
2019-06-26T18:51:36.085Z,15.45
2019-06-26T18:54:09.711Z,11.48
2019-06-26T18:56:42.897Z,9.70
2019-06-26T18:59:16.345Z,12.40
2019-06-26T19:01:49.631Z,10.90
2019-06-26T19:04:23.042Z,12.00
2019-06-26T19:07:00.466Z,12.13
2019-06-26T19:09:35.691Z,17.87
2019-06-26T19:12:09.081Z,13.98
2019-06-26T19:14:46.080Z,13.58
2019-06-26T19:17:19.887Z,12.30
2019-06-26T19:19:53.447Z,10.65
2019-06-26T19:22:27.006Z,10.28
2019-06-26T19:25:00.994Z,9.33
2019-06-26T19:27:38.553Z,8.63
2019-06-26T19:30:12.553Z,9.10
2019-06-26T19:32:46.599Z,8.93
2019-06-26T19:35:23.041Z,9.00
2019-06-26T19:37:56.722Z,8.93
2019-06-26T19:40:33.616Z,8.80
2019-06-26T19:43:11.189Z,7.70
2019-06-26T19:45:44.705Z,8.53
2019-06-26T19:48:24.605Z,7.53
2019-06-26T19:50:57.919Z,8.73
2019-06-26T19:53:31.556Z,7.85
2019-06-26T19:56:05.026Z,8.03
2019-06-26T19:58:38.335Z,9.18
2019-06-26T20:01:11.757Z,11.90
2019-06-26T20:03:46.223Z,9.73
2019-06-26T20:06:19.563Z,7.92
2019-06-26T20:08:57.295Z,8.93
2019-06-26T20:11:28.073Z,8.28
2019-06-26T20:14:01.207Z,10.58
2019-06-26T20:16:53.180Z,9.58
2019-06-26T20:19:29.394Z,9.95
2019-06-26T20:22:04.216Z,9.08
2019-06-26T20:24:44.134Z,8.20
2019-06-26T20:27:13.334Z,8.13
2019-06-26T20:29:46.566Z,8.35
2019-06-26T20:32:19.858Z,8.80
2019-06-26T20:34:53.146Z,7.90
2019-06-26T20:37:26.343Z,7.55
2019-06-26T20:40:00.000Z,7.25
2019-06-26T20:42:33.380Z,7.35
2019-06-26T20:45:08.605Z,14.83
2019-06-26T20:47:42.206Z,8.58
2019-06-26T20:50:16.730Z,9.60
2019-06-26T20:52:50.839Z,8.48
2019-06-26T20:55:24.431Z,8.20
2019-06-26T20:57:58.758Z,7.28
2019-06-26T21:00:32.632Z,8.33
2019-06-26T21:03:05.967Z,8.08
2019-06-26T21:05:39.237Z,8.15
2019-06-26T21:08:12.460Z,8.20
2019-06-26T21:10:47.266Z,7.67
2019-06-26T21:13:20.898Z,7.90
2019-06-26T21:15:55.160Z,7.47
2019-06-26T21:18:28.793Z,6.83
2019-06-26T21:21:05.046Z,6.78
2019-06-26T21:23:38.539Z,6.58
2019-06-26T21:26:11.787Z,6.72
2019-06-26T21:28:46.206Z,6.70
2019-06-26T21:31:19.486Z,6.67
2019-06-26T21:33:52.638Z,7.05
2019-06-26T21:36:25.893Z,7.03
2019-06-26T21:38:59.152Z,6.58
2019-06-26T21:41:32.445Z,6.03
2019-06-26T21:44:05.858Z,6.35
2019-06-26T21:46:40.231Z,6.03
2019-06-26T21:49:13.518Z,6.22
2019-06-26T21:51:46.722Z,6.50
2019-06-26T21:54:19.945Z,6.20
2019-06-26T21:57:11.303Z,6.08
2019-06-26T22:00:02.312Z,6.37
2019-06-26T22:02:57.605Z,6.70
2019-06-26T22:05:32.964Z,6.65
2019-06-26T22:08:19.512Z,6.00
2019-06-26T22:10:54.646Z,6.33
2019-06-26T22:13:28.106Z,5.85
2019-06-26T22:16:01.553Z,6.42
2019-06-26T22:18:36.540Z,6.37
2019-06-26T22:21:09.972Z,5.83
2019-06-26T22:23:45.765Z,6.05
2019-06-26T22:26:19.122Z,6.90
2019-06-26T22:28:52.477Z,5.47
2019-06-26T22:31:25.996Z,6.17
2019-06-26T22:33:59.672Z,6.55
2019-06-26T22:36:39.249Z,6.00
2019-06-26T22:39:09.211Z,6.20
2019-06-26T22:41:43.991Z,5.40
2019-06-26T22:44:17.590Z,5.42
2019-06-26T22:46:51.115Z,5.97
2019-06-26T22:49:25.440Z,5.67
2019-06-26T22:51:59.557Z,5.70
2019-06-26T22:54:33.128Z,5.55
2019-06-26T22:57:06.568Z,5.65
2019-06-26T22:59:41.215Z,5.78
2019-06-26T23:02:14.850Z,5.35
2019-06-26T23:04:48.472Z,5.95
2019-06-26T23:07:22.361Z,6.08
2019-06-26T23:09:55.814Z,5.92
2019-06-26T23:12:29.469Z,5.62
2019-06-26T23:15:04.061Z,5.95
2019-06-26T23:17:37.628Z,5.53
2019-06-26T23:20:11.577Z,4.85
2019-06-26T23:22:46.435Z,5.40
2019-06-26T23:25:21.334Z,4.67
2019-06-26T23:27:55.021Z,4.45
2019-06-26T23:30:28.781Z,4.22
2019-06-26T23:33:02.315Z,3.52
2019-06-26T23:35:47.212Z,3.85
2019-06-26T23:38:16.860Z,3.30
2019-06-26T23:40:50.532Z,3.87
2019-06-26T23:43:24.138Z,3.65
2019-06-26T23:45:57.738Z,3.20
2019-06-26T23:48:34.237Z,3.50
2019-06-26T23:51:08.980Z,3.85
2019-06-26T23:53:48.964Z,3.47
2019-06-26T23:56:39.479Z,3.27
2019-06-26T23:58:59.663Z,3.10
